sensor_id;sensor_type;location;lat;lon;timestamp;temperature;humidity
32753;DHT22;19121;52.428;10.816;2023-12-04T00:00:37;18.80;39.00
32753;DHT22;19121;52.428;10.816;2023-12-04T00:03:03;18.80;39.10
32753;DHT22;19121;52.428;10.816;2023-12-04T00:05:28;18.80;39.10
32753;DHT22;19121;52.428;10.816;2023-12-04T00:07:54;18.80;39.10
32753;DHT22;19121;52.428;10.816;2023-12-04T00:10:19;18.80;39.10
32753;DHT22;19121;52.428;10.816;2023-12-04T00:12:45;18.80;39.00
32753;DHT22;19121;52.428;10.816;2023-12-04T00:15:10;18.80;39.00
32753;DHT22;19121;52.428;10.816;2023-12-04T00:17:36;18.80;39.00
32753;DHT22;19121;52.428;10.816;2023-12-04T00:20:08;18.80;39.00
32753;DHT22;19121;52.428;10.816;2023-12-04T00:22:34;18.80;39.00
32753;DHT22;19121;52.428;10.816;2023-12-04T00:25:00;18.80;39.00
32753;DHT22;19121;52.428;10.816;2023-12-04T00:27:25;18.80;39.00
32753;DHT22;19121;52.428;10.816;2023-12-04T00:29:52;18.80;39.00
32753;DHT22;19121;52.428;10.816;2023-12-04T00:32:18;18.80;39.00
32753;DHT22;19121;52.428;10.816;2023-12-04T00:34:43;18.80;39.00
32753;DHT22;19121;52.428;10.816;2023-12-04T00:37:08;18.80;39.00
32753;DHT22;19121;52.428;10.816;2023-12-04T00:39:34;18.80;39.00
32753;DHT22;19121;52.428;10.816;2023-12-04T00:41:59;18.80;38.90
32753;DHT22;19121;52.428;10.816;2023-12-04T00:44:25;18.80;39.00
32753;DHT22;19121;52.428;10.816;2023-12-04T00:46:50;18.80;38.90
32753;DHT22;19121;52.428;10.816;2023-12-04T00:49:16;18.80;38.90
32753;DHT22;19121;52.428;10.816;2023-12-04T00:51:41;18.80;38.90
32753;DHT22;19121;52.428;10.816;2023-12-04T00:54:07;18.80;38.90
32753;DHT22;19121;52.428;10.816;2023-12-04T00:56:32;18.80;38.90
32753;DHT22;19121;52.428;10.816;2023-12-04T00:58:58;18.80;38.90
32753;DHT22;19121;52.428;10.816;2023-12-04T01:01:24;18.80;38.90
32753;DHT22;19121;52.428;10.816;2023-12-04T01:03:49;18.80;38.90
32753;DHT22;19121;52.428;10.816;2023-12-04T01:06:24;18.80;38.90
32753;DHT22;19121;52.428;10.816;2023-12-04T01:08:49;18.80;38.90
32753;DHT22;19121;52.428;10.816;2023-12-04T01:11:15;18.80;38.80
32753;DHT22;19121;52.428;10.816;2023-12-04T01:13:41;18.70;38.80
32753;DHT22;19121;52.428;10.816;2023-12-04T01:16:06;18.80;38.80
32753;DHT22;19121;52.428;10.816;2023-12-04T01:18:32;18.70;38.80
32753;DHT22;19121;52.428;10.816;2023-12-04T01:20:57;18.70;38.80
32753;DHT22;19121;52.428;10.816;2023-12-04T01:23:23;18.70;38.80
32753;DHT22;19121;52.428;10.816;2023-12-04T01:25:48;18.70;38.80
32753;DHT22;19121;52.428;10.816;2023-12-04T01:28:14;18.70;38.80
32753;DHT22;19121;52.428;10.816;2023-12-04T01:30:39;18.70;38.80
32753;DHT22;19121;52.428;10.816;2023-12-04T01:33:05;18.70;38.80
32753;DHT22;19121;52.428;10.816;2023-12-04T01:35:30;18.70;38.80
32753;DHT22;19121;52.428;10.816;2023-12-04T01:37:56;18.70;38.80
32753;DHT22;19121;52.428;10.816;2023-12-04T01:40:21;18.70;38.80
32753;DHT22;19121;52.428;10.816;2023-12-04T01:42:47;18.70;38.70
32753;DHT22;19121;52.428;10.816;2023-12-04T01:45:12;18.70;38.70
32753;DHT22;19121;52.428;10.816;2023-12-04T01:47:38;18.70;38.80
32753;DHT22;19121;52.428;10.816;2023-12-04T01:50:04;18.70;38.70
32753;DHT22;19121;52.428;10.816;2023-12-04T01:52:30;18.70;38.70
32753;DHT22;19121;52.428;10.816;2023-12-04T01:54:57;18.70;38.70
32753;DHT22;19121;52.428;10.816;2023-12-04T01:57:22;18.70;38.70
32753;DHT22;19121;52.428;10.816;2023-12-04T01:59:48;18.70;38.70
32753;DHT22;19121;52.428;10.816;2023-12-04T02:02:14;18.70;38.70
32753;DHT22;19121;52.428;10.816;2023-12-04T02:04:39;18.70;38.70
32753;DHT22;19121;52.428;10.816;2023-12-04T02:07:05;18.70;38.70
32753;DHT22;19121;52.428;10.816;2023-12-04T02:09:30;18.70;38.70
32753;DHT22;19121;52.428;10.816;2023-12-04T02:11:56;18.70;38.70
32753;DHT22;19121;52.428;10.816;2023-12-04T02:14:22;18.70;38.70
32753;DHT22;19121;52.428;10.816;2023-12-04T02:16:48;18.70;38.70
32753;DHT22;19121;52.428;10.816;2023-12-04T02:19:14;18.70;38.70
32753;DHT22;19121;52.428;10.816;2023-12-04T02:21:40;18.70;38.70
32753;DHT22;19121;52.428;10.816;2023-12-04T02:24:05;18.70;38.70
32753;DHT22;19121;52.428;10.816;2023-12-04T02:26:35;18.70;38.70
32753;DHT22;19121;52.428;10.816;2023-12-04T02:29:05;18.70;38.70
32753;DHT22;19121;52.428;10.816;2023-12-04T02:31:32;18.70;38.70
32753;DHT22;19121;52.428;10.816;2023-12-04T02:33:59;18.70;38.70
32753;DHT22;19121;52.428;10.816;2023-12-04T02:36:26;18.70;38.70
32753;DHT22;19121;52.428;10.816;2023-12-04T02:38:52;18.70;38.70
32753;DHT22;19121;52.428;10.816;2023-12-04T02:41:18;18.60;38.60
32753;DHT22;19121;52.428;10.816;2023-12-04T02:43:44;18.60;38.60
32753;DHT22;19121;52.428;10.816;2023-12-04T02:46:09;18.60;38.60
32753;DHT22;19121;52.428;10.816;2023-12-04T02:48:35;18.60;38.60
32753;DHT22;19121;52.428;10.816;2023-12-04T02:51:01;18.70;38.70
32753;DHT22;19121;52.428;10.816;2023-12-04T02:53:27;18.60;38.60
32753;DHT22;19121;52.428;10.816;2023-12-04T02:55:52;18.60;38.60
32753;DHT22;19121;52.428;10.816;2023-12-04T02:58:18;18.60;38.60
32753;DHT22;19121;52.428;10.816;2023-12-04T03:00:43;18.70;38.70
32753;DHT22;19121;52.428;10.816;2023-12-04T03:03:09;18.60;38.60
32753;DHT22;19121;52.428;10.816;2023-12-04T03:05:35;18.60;38.60
32753;DHT22;19121;52.428;10.816;2023-12-04T03:08:00;18.60;38.60
32753;DHT22;19121;52.428;10.816;2023-12-04T03:10:26;18.60;38.60
32753;DHT22;19121;52.428;10.816;2023-12-04T03:12:51;18.60;38.60
32753;DHT22;19121;52.428;10.816;2023-12-04T03:15:17;18.60;38.60
32753;DHT22;19121;52.428;10.816;2023-12-04T03:17:42;18.60;38.60
32753;DHT22;19121;52.428;10.816;2023-12-04T03:20:08;18.60;38.60
32753;DHT22;19121;52.428;10.816;2023-12-04T03:22:34;18.70;38.70
32753;DHT22;19121;52.428;10.816;2023-12-04T03:25:00;18.70;38.70
32753;DHT22;19121;52.428;10.816;2023-12-04T03:27:25;18.70;38.70
32753;DHT22;19121;52.428;10.816;2023-12-04T03:29:51;18.70;38.70
32753;DHT22;19121;52.428;10.816;2023-12-04T03:32:16;18.70;38.70
32753;DHT22;19121;52.428;10.816;2023-12-04T03:34:42;18.70;38.60
32753;DHT22;19121;52.428;10.816;2023-12-04T03:37:07;18.70;38.60
32753;DHT22;19121;52.428;10.816;2023-12-04T03:39:33;18.70;39.20
32753;DHT22;19121;52.428;10.816;2023-12-04T03:41:58;18.70;38.60
32753;DHT22;19121;52.428;10.816;2023-12-04T03:44:24;18.70;38.60
32753;DHT22;19121;52.428;10.816;2023-12-04T03:46:50;18.70;38.50
32753;DHT22;19121;52.428;10.816;2023-12-04T03:49:15;18.70;38.50
32753;DHT22;19121;52.428;10.816;2023-12-04T03:51:41;18.80;38.50
32753;DHT22;19121;52.428;10.816;2023-12-04T03:54:06;18.80;38.50
32753;DHT22;19121;52.428;10.816;2023-12-04T03:56:32;18.80;38.50
32753;DHT22;19121;52.428;10.816;2023-12-04T03:58:57;18.80;38.50
32753;DHT22;19121;52.428;10.816;2023-12-04T04:01:23;18.80;38.50
32753;DHT22;19121;52.428;10.816;2023-12-04T04:03:48;18.80;38.50
32753;DHT22;19121;52.428;10.816;2023-12-04T04:06:14;18.80;38.50
32753;DHT22;19121;52.428;10.816;2023-12-04T04:08:39;18.80;38.40
32753;DHT22;19121;52.428;10.816;2023-12-04T04:11:05;18.80;38.50
32753;DHT22;19121;52.428;10.816;2023-12-04T04:13:30;18.90;38.50
32753;DHT22;19121;52.428;10.816;2023-12-04T04:15:56;18.90;38.40
32753;DHT22;19121;52.428;10.816;2023-12-04T04:18:21;18.80;38.40
32753;DHT22;19121;52.428;10.816;2023-12-04T04:20:47;18.90;38.40
32753;DHT22;19121;52.428;10.816;2023-12-04T04:23:12;18.90;38.40
32753;DHT22;19121;52.428;10.816;2023-12-04T04:25:38;18.90;38.40
32753;DHT22;19121;52.428;10.816;2023-12-04T04:28:03;18.90;38.40
32753;DHT22;19121;52.428;10.816;2023-12-04T04:30:29;18.90;38.40
32753;DHT22;19121;52.428;10.816;2023-12-04T04:32:54;18.90;38.40
32753;DHT22;19121;52.428;10.816;2023-12-04T04:35:20;18.90;38.30
32753;DHT22;19121;52.428;10.816;2023-12-04T04:37:45;18.80;38.20
32753;DHT22;19121;52.428;10.816;2023-12-04T04:40:11;18.90;38.30
32753;DHT22;19121;52.428;10.816;2023-12-04T04:42:36;18.90;38.30
32753;DHT22;19121;52.428;10.816;2023-12-04T04:45:02;18.90;38.20
32753;DHT22;19121;52.428;10.816;2023-12-04T04:47:27;18.90;38.20
32753;DHT22;19121;52.428;10.816;2023-12-04T04:49:53;18.90;38.20
32753;DHT22;19121;52.428;10.816;2023-12-04T04:52:18;18.90;38.20
32753;DHT22;19121;52.428;10.816;2023-12-04T04:54:44;18.90;38.20
32753;DHT22;19121;52.428;10.816;2023-12-04T04:57:09;18.90;38.20
32753;DHT22;19121;52.428;10.816;2023-12-04T04:59:35;18.90;38.20
32753;DHT22;19121;52.428;10.816;2023-12-04T05:02:00;18.90;38.20
32753;DHT22;19121;52.428;10.816;2023-12-04T05:04:25;18.90;38.20
32753;DHT22;19121;52.428;10.816;2023-12-04T05:06:51;18.90;38.10
32753;DHT22;19121;52.428;10.816;2023-12-04T05:09:16;18.90;38.10
32753;DHT22;19121;52.428;10.816;2023-12-04T05:11:42;18.90;38.10
32753;DHT22;19121;52.428;10.816;2023-12-04T05:14:07;18.90;38.10
32753;DHT22;19121;52.428;10.816;2023-12-04T05:16:33;18.90;38.10
32753;DHT22;19121;52.428;10.816;2023-12-04T05:18:58;18.90;38.10
32753;DHT22;19121;52.428;10.816;2023-12-04T05:21:24;18.90;38.10
32753;DHT22;19121;52.428;10.816;2023-12-04T05:23:50;18.90;38.10
32753;DHT22;19121;52.428;10.816;2023-12-04T05:26:15;18.90;38.10
32753;DHT22;19121;52.428;10.816;2023-12-04T05:28:40;18.90;38.10
32753;DHT22;19121;52.428;10.816;2023-12-04T05:31:06;18.90;38.10
32753;DHT22;19121;52.428;10.816;2023-12-04T05:33:31;18.90;38.00
32753;DHT22;19121;52.428;10.816;2023-12-04T05:35:57;18.90;38.60
32753;DHT22;19121;52.428;10.816;2023-12-04T05:38:22;18.90;38.00
32753;DHT22;19121;52.428;10.816;2023-12-04T05:40:48;18.90;38.00
32753;DHT22;19121;52.428;10.816;2023-12-04T05:43:14;18.90;38.00
32753;DHT22;19121;52.428;10.816;2023-12-04T05:45:39;18.90;38.00
32753;DHT22;19121;52.428;10.816;2023-12-04T05:48:05;18.90;38.00
32753;DHT22;19121;52.428;10.816;2023-12-04T05:50:31;19.00;38.00
32753;DHT22;19121;52.428;10.816;2023-12-04T05:52:56;18.90;37.90
32753;DHT22;19121;52.428;10.816;2023-12-04T05:55:22;18.90;37.90
32753;DHT22;19121;52.428;10.816;2023-12-04T05:57:47;18.90;37.90
32753;DHT22;19121;52.428;10.816;2023-12-04T06:00:13;19.00;38.00
32753;DHT22;19121;52.428;10.816;2023-12-04T06:02:42;19.00;38.00
32753;DHT22;19121;52.428;10.816;2023-12-04T06:05:08;19.00;38.00
32753;DHT22;19121;52.428;10.816;2023-12-04T06:07:34;18.90;37.90
32753;DHT22;19121;52.428;10.816;2023-12-04T06:09:59;18.90;37.90
32753;DHT22;19121;52.428;10.816;2023-12-04T06:12:25;18.90;37.90
32753;DHT22;19121;52.428;10.816;2023-12-04T06:14:50;18.90;37.90
32753;DHT22;19121;52.428;10.816;2023-12-04T06:17:16;18.90;37.90
32753;DHT22;19121;52.428;10.816;2023-12-04T06:19:41;18.90;37.90
32753;DHT22;19121;52.428;10.816;2023-12-04T06:22:07;18.90;37.90
32753;DHT22;19121;52.428;10.816;2023-12-04T06:24:33;18.90;37.90
32753;DHT22;19121;52.428;10.816;2023-12-04T06:26:58;18.90;37.80
32753;DHT22;19121;52.428;10.816;2023-12-04T06:29:24;18.90;37.80
32753;DHT22;19121;52.428;10.816;2023-12-04T06:31:50;18.90;37.80
32753;DHT22;19121;52.428;10.816;2023-12-04T06:34:15;18.90;37.80
32753;DHT22;19121;52.428;10.816;2023-12-04T06:36:41;18.90;37.80
32753;DHT22;19121;52.428;10.816;2023-12-04T06:39:08;18.90;37.80
32753;DHT22;19121;52.428;10.816;2023-12-04T06:41:34;18.90;37.80
32753;DHT22;19121;52.428;10.816;2023-12-04T06:44:00;18.90;37.80
32753;DHT22;19121;52.428;10.816;2023-12-04T06:46:26;18.90;37.80
32753;DHT22;19121;52.428;10.816;2023-12-04T06:48:54;18.90;38.50
32753;DHT22;19121;52.428;10.816;2023-12-04T06:51:22;18.90;38.10
32753;DHT22;19121;52.428;10.816;2023-12-04T06:53:47;18.80;38.10
32753;DHT22;19121;52.428;10.816;2023-12-04T06:56:13;18.80;38.10
32753;DHT22;19121;52.428;10.816;2023-12-04T06:58:38;18.80;38.00
32753;DHT22;19121;52.428;10.816;2023-12-04T07:01:04;18.90;38.00
32753;DHT22;19121;52.428;10.816;2023-12-04T07:03:29;18.90;38.00
32753;DHT22;19121;52.428;10.816;2023-12-04T07:05:55;18.90;37.90
32753;DHT22;19121;52.428;10.816;2023-12-04T07:08:20;18.90;38.00
32753;DHT22;19121;52.428;10.816;2023-12-04T07:10:46;18.90;38.00
32753;DHT22;19121;52.428;10.816;2023-12-04T07:13:12;18.90;38.00
32753;DHT22;19121;52.428;10.816;2023-12-04T07:15:38;18.90;38.00
32753;DHT22;19121;52.428;10.816;2023-12-04T07:18:03;18.90;38.00
32753;DHT22;19121;52.428;10.816;2023-12-04T07:20:29;19.00;38.00
32753;DHT22;19121;52.428;10.816;2023-12-04T07:22:55;19.00;38.00
32753;DHT22;19121;52.428;10.816;2023-12-04T07:25:20;19.00;38.00
32753;DHT22;19121;52.428;10.816;2023-12-04T07:27:46;18.90;37.90
32753;DHT22;19121;52.428;10.816;2023-12-04T07:30:11;18.90;37.70
32753;DHT22;19121;52.428;10.816;2023-12-04T07:32:37;18.90;37.50
32753;DHT22;19121;52.428;10.816;2023-12-04T07:35:03;18.90;37.30
32753;DHT22;19121;52.428;10.816;2023-12-04T07:37:29;18.90;37.30
32753;DHT22;19121;52.428;10.816;2023-12-04T07:39:56;18.90;37.50
32753;DHT22;19121;52.428;10.816;2023-12-04T07:42:22;18.90;37.80
32753;DHT22;19121;52.428;10.816;2023-12-04T07:44:47;18.90;37.90
32753;DHT22;19121;52.428;10.816;2023-12-04T07:47:13;19.00;38.10
32753;DHT22;19121;52.428;10.816;2023-12-04T07:49:38;19.00;38.20
32753;DHT22;19121;52.428;10.816;2023-12-04T07:52:04;19.00;38.40
32753;DHT22;19121;52.428;10.816;2023-12-04T07:54:29;19.00;38.50
32753;DHT22;19121;52.428;10.816;2023-12-04T07:56:55;19.10;38.60
32753;DHT22;19121;52.428;10.816;2023-12-04T07:59:20;19.00;38.50
32753;DHT22;19121;52.428;10.816;2023-12-04T08:01:46;19.00;39.00
32753;DHT22;19121;52.428;10.816;2023-12-04T08:04:11;19.00;38.30
32753;DHT22;19121;52.428;10.816;2023-12-04T08:06:37;18.90;38.30
32753;DHT22;19121;52.428;10.816;2023-12-04T08:09:02;18.90;38.40
32753;DHT22;19121;52.428;10.816;2023-12-04T08:11:31;18.90;38.50
32753;DHT22;19121;52.428;10.816;2023-12-04T08:13:56;18.90;38.50
32753;DHT22;19121;52.428;10.816;2023-12-04T08:16:22;19.00;39.40
32753;DHT22;19121;52.428;10.816;2023-12-04T08:18:47;18.90;39.90
32753;DHT22;19121;52.428;10.816;2023-12-04T08:21:13;19.00;39.90
32753;DHT22;19121;52.428;10.816;2023-12-04T08:23:38;19.00;40.60
32753;DHT22;19121;52.428;10.816;2023-12-04T08:26:04;19.10;39.90
32753;DHT22;19121;52.428;10.816;2023-12-04T08:28:29;19.10;39.70
32753;DHT22;19121;52.428;10.816;2023-12-04T08:30:55;19.10;39.70
32753;DHT22;19121;52.428;10.816;2023-12-04T08:33:20;19.10;39.70
32753;DHT22;19121;52.428;10.816;2023-12-04T08:35:46;19.20;39.70
32753;DHT22;19121;52.428;10.816;2023-12-04T08:38:11;19.10;39.60
32753;DHT22;19121;52.428;10.816;2023-12-04T08:40:37;19.20;39.80
32753;DHT22;19121;52.428;10.816;2023-12-04T08:43:02;19.20;39.70
32753;DHT22;19121;52.428;10.816;2023-12-04T08:45:29;19.20;39.70
32753;DHT22;19121;52.428;10.816;2023-12-04T08:47:54;19.20;39.80
32753;DHT22;19121;52.428;10.816;2023-12-04T08:50:20;19.20;39.90
32753;DHT22;19121;52.428;10.816;2023-12-04T08:52:46;19.20;39.70
32753;DHT22;19121;52.428;10.816;2023-12-04T08:55:11;19.20;39.70
32753;DHT22;19121;52.428;10.816;2023-12-04T08:57:37;19.20;39.70
32753;DHT22;19121;52.428;10.816;2023-12-04T09:00:03;19.20;39.70
32753;DHT22;19121;52.428;10.816;2023-12-04T09:02:29;19.20;39.70
32753;DHT22;19121;52.428;10.816;2023-12-04T09:04:54;19.20;39.60
32753;DHT22;19121;52.428;10.816;2023-12-04T09:07:19;19.20;39.60
32753;DHT22;19121;52.428;10.816;2023-12-04T09:09:45;19.20;39.60
32753;DHT22;19121;52.428;10.816;2023-12-04T09:12:11;19.20;39.50
32753;DHT22;19121;52.428;10.816;2023-12-04T09:14:37;19.20;39.60
32753;DHT22;19121;52.428;10.816;2023-12-04T09:17:02;19.20;39.70
32753;DHT22;19121;52.428;10.816;2023-12-04T09:19:29;19.20;39.60
32753;DHT22;19121;52.428;10.816;2023-12-04T09:21:55;19.20;39.70
32753;DHT22;19121;52.428;10.816;2023-12-04T09:24:20;19.20;39.60
32753;DHT22;19121;52.428;10.816;2023-12-04T09:26:46;19.20;39.70
32753;DHT22;19121;52.428;10.816;2023-12-04T09:29:11;19.30;39.80
32753;DHT22;19121;52.428;10.816;2023-12-04T09:31:37;19.30;40.00
32753;DHT22;19121;52.428;10.816;2023-12-04T09:34:03;19.30;40.00
32753;DHT22;19121;52.428;10.816;2023-12-04T09:36:29;19.30;40.10
32753;DHT22;19121;52.428;10.816;2023-12-04T09:38:54;19.30;40.10
32753;DHT22;19121;52.428;10.816;2023-12-04T09:41:20;19.30;40.30
32753;DHT22;19121;52.428;10.816;2023-12-04T09:43:46;19.30;40.40
32753;DHT22;19121;52.428;10.816;2023-12-04T09:46:12;19.30;41.00
32753;DHT22;19121;52.428;10.816;2023-12-04T09:48:38;19.30;40.60
32753;DHT22;19121;52.428;10.816;2023-12-04T09:51:04;19.30;40.70
32753;DHT22;19121;52.428;10.816;2023-12-04T09:53:30;19.30;40.70
32753;DHT22;19121;52.428;10.816;2023-12-04T09:55:57;19.30;40.80
32753;DHT22;19121;52.428;10.816;2023-12-04T09:58:23;19.30;40.80
32753;DHT22;19121;52.428;10.816;2023-12-04T10:00:50;19.30;40.30
32753;DHT22;19121;52.428;10.816;2023-12-04T10:03:19;19.30;40.20
32753;DHT22;19121;52.428;10.816;2023-12-04T10:05:44;19.30;40.00
32753;DHT22;19121;52.428;10.816;2023-12-04T10:08:11;19.30;40.00
32753;DHT22;19121;52.428;10.816;2023-12-04T10:10:36;19.30;39.80
32753;DHT22;19121;52.428;10.816;2023-12-04T10:13:02;19.30;39.80
32753;DHT22;19121;52.428;10.816;2023-12-04T10:15:28;19.20;40.00
32753;DHT22;19121;52.428;10.816;2023-12-04T10:17:53;19.20;40.20
32753;DHT22;19121;52.428;10.816;2023-12-04T10:20:19;19.20;40.60
32753;DHT22;19121;52.428;10.816;2023-12-04T10:22:56;19.20;40.30
32753;DHT22;19121;52.428;10.816;2023-12-04T10:25:23;19.20;39.90
32753;DHT22;19121;52.428;10.816;2023-12-04T10:28:10;19.20;39.80
32753;DHT22;19121;52.428;10.816;2023-12-04T10:30:35;19.20;39.90
32753;DHT22;19121;52.428;10.816;2023-12-04T10:33:02;19.10;39.70
32753;DHT22;19121;52.428;10.816;2023-12-04T10:35:28;19.20;39.90
32753;DHT22;19121;52.428;10.816;2023-12-04T10:37:55;19.20;40.00
32753;DHT22;19121;52.428;10.816;2023-12-04T10:40:28;19.10;39.80
32753;DHT22;19121;52.428;10.816;2023-12-04T10:43:10;19.10;39.80
32753;DHT22;19121;52.428;10.816;2023-12-04T10:45:36;19.10;39.90
32753;DHT22;19121;52.428;10.816;2023-12-04T10:48:02;19.10;39.90
32753;DHT22;19121;52.428;10.816;2023-12-04T10:50:37;19.10;39.90
32753;DHT22;19121;52.428;10.816;2023-12-04T10:53:06;19.10;40.00
32753;DHT22;19121;52.428;10.816;2023-12-04T10:55:33;19.10;40.00
32753;DHT22;19121;52.428;10.816;2023-12-04T10:58:02;19.10;40.10
32753;DHT22;19121;52.428;10.816;2023-12-04T11:00:29;19.10;40.10
32753;DHT22;19121;52.428;10.816;2023-12-04T11:02:55;19.10;40.00
32753;DHT22;19121;52.428;10.816;2023-12-04T11:05:22;19.20;40.00
32753;DHT22;19121;52.428;10.816;2023-12-04T11:07:50;19.20;40.20
32753;DHT22;19121;52.428;10.816;2023-12-04T11:10:18;19.20;40.20
32753;DHT22;19121;52.428;10.816;2023-12-04T11:12:44;19.20;40.20
32753;DHT22;19121;52.428;10.816;2023-12-04T11:15:11;19.20;40.20
32753;DHT22;19121;52.428;10.816;2023-12-04T11:17:39;19.20;40.00
32753;DHT22;19121;52.428;10.816;2023-12-04T11:20:10;19.20;40.30
32753;DHT22;19121;52.428;10.816;2023-12-04T11:22:36;19.20;40.10
32753;DHT22;19121;52.428;10.816;2023-12-04T11:25:05;19.20;40.20
32753;DHT22;19121;52.428;10.816;2023-12-04T11:27:31;19.30;40.10
32753;DHT22;19121;52.428;10.816;2023-12-04T11:29:57;19.30;40.00
32753;DHT22;19121;52.428;10.816;2023-12-04T11:32:24;19.20;39.90
32753;DHT22;19121;52.428;10.816;2023-12-04T11:34:50;19.30;39.80
32753;DHT22;19121;52.428;10.816;2023-12-04T11:37:15;19.30;39.70
32753;DHT22;19121;52.428;10.816;2023-12-04T11:39:41;19.30;39.60
32753;DHT22;19121;52.428;10.816;2023-12-04T11:42:06;19.30;39.50
32753;DHT22;19121;52.428;10.816;2023-12-04T11:44:32;19.30;39.50
32753;DHT22;19121;52.428;10.816;2023-12-04T11:47:02;19.30;40.10
32753;DHT22;19121;52.428;10.816;2023-12-04T11:49:29;19.20;39.50
32753;DHT22;19121;52.428;10.816;2023-12-04T11:51:55;19.20;39.50
32753;DHT22;19121;52.428;10.816;2023-12-04T11:54:21;19.20;39.50
32753;DHT22;19121;52.428;10.816;2023-12-04T11:56:59;19.20;39.60
32753;DHT22;19121;52.428;10.816;2023-12-04T11:59:25;19.20;39.70
32753;DHT22;19121;52.428;10.816;2023-12-04T12:01:53;19.20;39.80
32753;DHT22;19121;52.428;10.816;2023-12-04T12:04:20;19.20;39.80
32753;DHT22;19121;52.428;10.816;2023-12-04T12:06:45;19.20;40.00
32753;DHT22;19121;52.428;10.816;2023-12-04T12:09:11;19.20;39.90
32753;DHT22;19121;52.428;10.816;2023-12-04T12:11:36;19.20;39.90
32753;DHT22;19121;52.428;10.816;2023-12-04T12:14:02;19.20;40.00
32753;DHT22;19121;52.428;10.816;2023-12-04T12:16:31;19.30;40.50
32753;DHT22;19121;52.428;10.816;2023-12-04T12:18:56;19.30;39.90
32753;DHT22;19121;52.428;10.816;2023-12-04T12:21:21;19.30;39.80
32753;DHT22;19121;52.428;10.816;2023-12-04T12:23:47;19.30;39.80
32753;DHT22;19121;52.428;10.816;2023-12-04T12:26:13;19.30;39.80
32753;DHT22;19121;52.428;10.816;2023-12-04T12:28:39;19.40;39.80
32753;DHT22;19121;52.428;10.816;2023-12-04T12:31:04;19.30;39.80
32753;DHT22;19121;52.428;10.816;2023-12-04T12:33:30;19.40;39.80
32753;DHT22;19121;52.428;10.816;2023-12-04T12:35:56;19.40;39.80
32753;DHT22;19121;52.428;10.816;2023-12-04T12:38:22;19.40;39.70
32753;DHT22;19121;52.428;10.816;2023-12-04T12:40:48;19.40;39.80
32753;DHT22;19121;52.428;10.816;2023-12-04T12:43:13;19.40;39.80
32753;DHT22;19121;52.428;10.816;2023-12-04T12:45:39;19.40;39.70
32753;DHT22;19121;52.428;10.816;2023-12-04T12:48:05;19.40;39.70
32753;DHT22;19121;52.428;10.816;2023-12-04T12:50:31;19.50;39.70
32753;DHT22;19121;52.428;10.816;2023-12-04T12:52:57;19.50;39.50
32753;DHT22;19121;52.428;10.816;2023-12-04T12:55:26;19.50;39.40
32753;DHT22;19121;52.428;10.816;2023-12-04T12:57:52;19.50;39.40
32753;DHT22;19121;52.428;10.816;2023-12-04T13:00:20;19.50;39.30
32753;DHT22;19121;52.428;10.816;2023-12-04T13:02:45;19.50;39.20
32753;DHT22;19121;52.428;10.816;2023-12-04T13:05:11;19.50;39.20
32753;DHT22;19121;52.428;10.816;2023-12-04T13:07:37;19.50;39.10
32753;DHT22;19121;52.428;10.816;2023-12-04T13:10:02;19.50;39.10
32753;DHT22;19121;52.428;10.816;2023-12-04T13:12:30;19.50;39.10
32753;DHT22;19121;52.428;10.816;2023-12-04T13:14:56;19.50;39.10
32753;DHT22;19121;52.428;10.816;2023-12-04T13:17:21;19.50;39.10
32753;DHT22;19121;52.428;10.816;2023-12-04T13:19:47;19.50;39.00
32753;DHT22;19121;52.428;10.816;2023-12-04T13:22:12;19.50;39.00
32753;DHT22;19121;52.428;10.816;2023-12-04T13:24:38;19.50;39.00
32753;DHT22;19121;52.428;10.816;2023-12-04T13:27:03;19.50;39.00
32753;DHT22;19121;52.428;10.816;2023-12-04T13:29:29;19.50;39.00
32753;DHT22;19121;52.428;10.816;2023-12-04T13:31:55;19.50;38.90
32753;DHT22;19121;52.428;10.816;2023-12-04T13:34:20;19.50;39.00
32753;DHT22;19121;52.428;10.816;2023-12-04T13:36:46;19.50;39.00
32753;DHT22;19121;52.428;10.816;2023-12-04T13:39:11;19.50;38.90
32753;DHT22;19121;52.428;10.816;2023-12-04T13:41:43;19.50;38.90
32753;DHT22;19121;52.428;10.816;2023-12-04T13:44:28;19.50;38.90
32753;DHT22;19121;52.428;10.816;2023-12-04T13:46:53;19.50;38.90
32753;DHT22;19121;52.428;10.816;2023-12-04T13:49:18;19.50;38.90
32753;DHT22;19121;52.428;10.816;2023-12-04T13:51:45;19.50;38.90
32753;DHT22;19121;52.428;10.816;2023-12-04T13:54:10;19.50;39.00
32753;DHT22;19121;52.428;10.816;2023-12-04T13:56:46;19.50;39.00
32753;DHT22;19121;52.428;10.816;2023-12-04T13:59:22;19.50;38.90
32753;DHT22;19121;52.428;10.816;2023-12-04T14:01:48;19.50;39.00
32753;DHT22;19121;52.428;10.816;2023-12-04T14:04:17;19.50;38.90
32753;DHT22;19121;52.428;10.816;2023-12-04T14:06:43;19.50;39.00
32753;DHT22;19121;52.428;10.816;2023-12-04T14:09:08;19.50;39.00
32753;DHT22;19121;52.428;10.816;2023-12-04T14:11:43;19.50;39.00
32753;DHT22;19121;52.428;10.816;2023-12-04T14:14:10;19.50;39.00
32753;DHT22;19121;52.428;10.816;2023-12-04T14:16:35;19.50;39.00
32753;DHT22;19121;52.428;10.816;2023-12-04T14:19:01;19.50;38.90
32753;DHT22;19121;52.428;10.816;2023-12-04T14:21:27;19.50;38.90
32753;DHT22;19121;52.428;10.816;2023-12-04T14:23:52;19.50;38.90
32753;DHT22;19121;52.428;10.816;2023-12-04T14:26:18;19.50;38.90
32753;DHT22;19121;52.428;10.816;2023-12-04T14:28:43;19.50;38.90
32753;DHT22;19121;52.428;10.816;2023-12-04T14:31:09;19.50;38.90
32753;DHT22;19121;52.428;10.816;2023-12-04T14:33:35;19.50;38.90
32753;DHT22;19121;52.428;10.816;2023-12-04T14:36:01;19.50;38.90
32753;DHT22;19121;52.428;10.816;2023-12-04T14:38:26;19.50;38.90
32753;DHT22;19121;52.428;10.816;2023-12-04T14:40:52;19.50;38.90
32753;DHT22;19121;52.428;10.816;2023-12-04T14:43:17;19.50;38.90
32753;DHT22;19121;52.428;10.816;2023-12-04T14:45:43;19.50;38.90
32753;DHT22;19121;52.428;10.816;2023-12-04T14:48:08;19.50;38.90
32753;DHT22;19121;52.428;10.816;2023-12-04T14:50:34;19.50;38.90
32753;DHT22;19121;52.428;10.816;2023-12-04T14:53:04;19.50;38.90
32753;DHT22;19121;52.428;10.816;2023-12-04T14:55:53;19.50;38.90
32753;DHT22;19121;52.428;10.816;2023-12-04T14:58:37;19.50;38.90
32753;DHT22;19121;52.428;10.816;2023-12-04T15:01:09;19.50;38.90
32753;DHT22;19121;52.428;10.816;2023-12-04T15:03:53;19.50;38.90
32753;DHT22;19121;52.428;10.816;2023-12-04T15:06:37;19.50;38.90
32753;DHT22;19121;52.428;10.816;2023-12-04T15:09:22;19.50;38.90